sensor_id;sensor_type;location;lat;lon;timestamp;pressure;altitude;pressure_sealevel;temperature;humidity
35806;BME280;21925;44.608;11.580;2023-06-10T00:01:41;101217.22;;;24.12;100.00
35806;BME280;21925;44.608;11.580;2023-06-10T00:04:08;101224.19;;;24.04;100.00
35806;BME280;21925;44.608;11.580;2023-06-10T00:06:34;101224.63;;;24.03;100.00
35806;BME280;21925;44.608;11.580;2023-06-10T00:09:07;101213.94;;;24.17;100.00
35806;BME280;21925;44.608;11.580;2023-06-10T00:11:37;101220.81;;;24.13;100.00
35806;BME280;21925;44.608;11.580;2023-06-10T00:14:03;101219.63;;;24.33;100.00
35806;BME280;21925;44.608;11.580;2023-06-10T00:16:29;101214.41;;;24.35;100.00
35806;BME280;21925;44.608;11.580;2023-06-10T00:18:55;101208.31;;;24.17;100.00
35806;BME280;21925;44.608;11.580;2023-06-10T00:21:26;101195.13;;;24.17;100.00
35806;BME280;21925;44.608;11.580;2023-06-10T00:23:51;101202.63;;;24.43;100.00
35806;BME280;21925;44.608;11.580;2023-06-10T00:26:17;101223.38;;;24.26;100.00
35806;BME280;21925;44.608;11.580;2023-06-10T00:28:44;101220.09;;;24.09;100.00
35806;BME280;21925;44.608;11.580;2023-06-10T00:31:10;101210.75;;;23.92;100.00
35806;BME280;21925;44.608;11.580;2023-06-10T00:33:37;101205.88;;;23.73;100.00
35806;BME280;21925;44.608;11.580;2023-06-10T00:36:03;101212.78;;;23.92;100.00
35806;BME280;21925;44.608;11.580;2023-06-10T00:38:29;101201.63;;;24.11;100.00
35806;BME280;21925;44.608;11.580;2023-06-10T00:40:54;101216.25;;;24.22;100.00
35806;BME280;21925;44.608;11.580;2023-06-10T00:43:20;101201.00;;;24.46;100.00
35806;BME280;21925;44.608;11.580;2023-06-10T00:45:46;101198.63;;;24.64;100.00
35806;BME280;21925;44.608;11.580;2023-06-10T00:48:11;101198.31;;;24.39;100.00
35806;BME280;21925;44.608;11.580;2023-06-10T00:50:37;101199.94;;;24.79;100.00
35806;BME280;21925;44.608;11.580;2023-06-10T00:53:06;101211.78;;;25.05;100.00
35806;BME280;21925;44.608;11.580;2023-06-10T00:55:32;101205.81;;;25.23;100.00
35806;BME280;21925;44.608;11.580;2023-06-10T00:57:58;101203.31;;;24.90;100.00
35806;BME280;21925;44.608;11.580;2023-06-10T01:00:25;101192.94;;;24.48;100.00
35806;BME280;21925;44.608;11.580;2023-06-10T01:02:51;101199.94;;;23.94;100.00
35806;BME280;21925;44.608;11.580;2023-06-10T01:05:21;101206.25;;;23.75;100.00
35806;BME280;21925;44.608;11.580;2023-06-10T01:10:26;101215.66;;;23.62;100.00
35806;BME280;21925;44.608;11.580;2023-06-10T01:13:06;101213.47;;;23.73;100.00
35806;BME280;21925;44.608;11.580;2023-06-10T01:15:35;101229.09;;;23.74;100.00
35806;BME280;21925;44.608;11.580;2023-06-10T01:18:06;101218.13;;;23.83;100.00
35806;BME280;21925;44.608;11.580;2023-06-10T01:20:35;101219.28;;;24.08;100.00
35806;BME280;21925;44.608;11.580;2023-06-10T01:23:02;101206.16;;;23.82;100.00
35806;BME280;21925;44.608;11.580;2023-06-10T01:25:29;101212.47;;;23.86;100.00
35806;BME280;21925;44.608;11.580;2023-06-10T01:33:27;101220.56;;;23.54;100.00
35806;BME280;21925;44.608;11.580;2023-06-10T01:35:56;101209.03;;;23.49;100.00
35806;BME280;21925;44.608;11.580;2023-06-10T01:38:25;101210.41;;;23.37;100.00
35806;BME280;21925;44.608;11.580;2023-06-10T01:40:53;101205.47;;;23.48;100.00
35806;BME280;21925;44.608;11.580;2023-06-10T01:43:20;101197.78;;;23.52;100.00
35806;BME280;21925;44.608;11.580;2023-06-10T01:45:46;101181.59;;;23.90;100.00
35806;BME280;21925;44.608;11.580;2023-06-10T01:48:12;101188.97;;;23.80;100.00
35806;BME280;21925;44.608;11.580;2023-06-10T01:50:38;101212.81;;;23.65;100.00
35806;BME280;21925;44.608;11.580;2023-06-10T01:53:04;101194.56;;;23.28;100.00
35806;BME280;21925;44.608;11.580;2023-06-10T01:55:33;101211.53;;;23.43;100.00
35806;BME280;21925;44.608;11.580;2023-06-10T01:57:58;101202.47;;;23.85;100.00
35806;BME280;21925;44.608;11.580;2023-06-10T02:00:24;101197.22;;;23.64;100.00
35806;BME280;21925;44.608;11.580;2023-06-10T02:02:49;101198.59;;;23.53;100.00
35806;BME280;21925;44.608;11.580;2023-06-10T02:05:15;101198.78;;;23.39;100.00
35806;BME280;21925;44.608;11.580;2023-06-10T02:07:41;101186.50;;;23.07;100.00
35806;BME280;21925;44.608;11.580;2023-06-10T02:10:07;101189.81;;;23.51;100.00
35806;BME280;21925;44.608;11.580;2023-06-10T02:12:33;101194.53;;;23.57;100.00
35806;BME280;21925;44.608;11.580;2023-06-10T02:14:58;101193.50;;;23.44;100.00
35806;BME280;21925;44.608;11.580;2023-06-10T02:17:24;101198.06;;;23.09;100.00
35806;BME280;21925;44.608;11.580;2023-06-10T02:19:50;101183.09;;;23.19;100.00
35806;BME280;21925;44.608;11.580;2023-06-10T02:22:22;101186.72;;;23.19;100.00
35806;BME280;21925;44.608;11.580;2023-06-10T02:24:48;101194.88;;;23.07;100.00
35806;BME280;21925;44.608;11.580;2023-06-10T02:27:18;101205.97;;;23.14;100.00
35806;BME280;21925;44.608;11.580;2023-06-10T02:29:43;101209.38;;;23.28;100.00
35806;BME280;21925;44.608;11.580;2023-06-10T02:32:10;101197.38;;;23.28;100.00
35806;BME280;21925;44.608;11.580;2023-06-10T02:34:35;101202.44;;;23.10;100.00
35806;BME280;21925;44.608;11.580;2023-06-10T02:37:02;101207.59;;;23.11;100.00
35806;BME280;21925;44.608;11.580;2023-06-10T02:39:29;101212.19;;;22.95;100.00
35806;BME280;21925;44.608;11.580;2023-06-10T02:41:55;101223.72;;;22.67;100.00
35806;BME280;21925;44.608;11.580;2023-06-10T02:44:21;101221.03;;;22.16;100.00
35806;BME280;21925;44.608;11.580;2023-06-10T02:46:47;101225.13;;;22.05;100.00
35806;BME280;21925;44.608;11.580;2023-06-10T02:49:12;101204.50;;;21.95;100.00
35806;BME280;21925;44.608;11.580;2023-06-10T02:51:38;101217.50;;;22.12;100.00
35806;BME280;21925;44.608;11.580;2023-06-10T02:54:04;101219.50;;;22.08;100.00
35806;BME280;21925;44.608;11.580;2023-06-10T02:56:30;101212.66;;;22.16;100.00
35806;BME280;21925;44.608;11.580;2023-06-10T02:58:59;101221.91;;;22.50;100.00
35806;BME280;21925;44.608;11.580;2023-06-10T03:01:26;101215.00;;;22.61;100.00
35806;BME280;21925;44.608;11.580;2023-06-10T03:04:00;101217.72;;;23.02;100.00
35806;BME280;21925;44.608;11.580;2023-06-10T03:06:26;101218.53;;;22.99;100.00
35806;BME280;21925;44.608;11.580;2023-06-10T03:08:56;101219.63;;;23.08;100.00
35806;BME280;21925;44.608;11.580;2023-06-10T03:11:22;101226.44;;;23.07;100.00
35806;BME280;21925;44.608;11.580;2023-06-10T03:13:49;101222.72;;;22.84;100.00
35806;BME280;21925;44.608;11.580;2023-06-10T03:16:16;101223.84;;;22.90;100.00
35806;BME280;21925;44.608;11.580;2023-06-10T03:18:42;101220.13;;;23.00;100.00
35806;BME280;21925;44.608;11.580;2023-06-10T03:21:08;101217.63;;;23.09;100.00
35806;BME280;21925;44.608;11.580;2023-06-10T03:23:35;101215.28;;;23.04;100.00
35806;BME280;21925;44.608;11.580;2023-06-10T03:26:01;101218.00;;;23.11;100.00
35806;BME280;21925;44.608;11.580;2023-06-10T03:28:28;101215.66;;;23.06;100.00
35806;BME280;21925;44.608;11.580;2023-06-10T03:30:55;101208.38;;;23.41;100.00
35806;BME280;21925;44.608;11.580;2023-06-10T03:33:23;101214.84;;;23.88;100.00
35806;BME280;21925;44.608;11.580;2023-06-10T03:35:49;101215.28;;;24.09;100.00
35806;BME280;21925;44.608;11.580;2023-06-10T03:38:16;101209.19;;;24.14;100.00
35806;BME280;21925;44.608;11.580;2023-06-10T03:40:42;101215.56;;;24.14;100.00
35806;BME280;21925;44.608;11.580;2023-06-10T03:43:09;101202.13;;;24.06;100.00
35806;BME280;21925;44.608;11.580;2023-06-10T03:45:35;101213.03;;;24.01;100.00
35806;BME280;21925;44.608;11.580;2023-06-10T03:48:02;101212.91;;;24.08;100.00
35806;BME280;21925;44.608;11.580;2023-06-10T03:50:44;101206.09;;;23.86;100.00
35806;BME280;21925;44.608;11.580;2023-06-10T03:53:09;101209.09;;;23.98;100.00
35806;BME280;21925;44.608;11.580;2023-06-10T03:55:37;101207.63;;;23.90;100.00
35806;BME280;21925;44.608;11.580;2023-06-10T03:58:03;101212.72;;;23.95;100.00
35806;BME280;21925;44.608;11.580;2023-06-10T04:00:29;101194.03;;;23.89;100.00
35806;BME280;21925;44.608;11.580;2023-06-10T04:02:55;101199.44;;;23.76;100.00
35806;BME280;21925;44.608;11.580;2023-06-10T04:05:31;101198.81;;;23.65;100.00
35806;BME280;21925;44.608;11.580;2023-06-10T04:07:57;101195.53;;;23.93;100.00
35806;BME280;21925;44.608;11.580;2023-06-10T04:10:22;101195.84;;;23.76;100.00
35806;BME280;21925;44.608;11.580;2023-06-10T04:12:48;101200.31;;;23.96;100.00
35806;BME280;21925;44.608;11.580;2023-06-10T04:15:15;101188.19;;;24.03;100.00
35806;BME280;21925;44.608;11.580;2023-06-10T04:17:44;101194.63;;;24.00;100.00
35806;BME280;21925;44.608;11.580;2023-06-10T04:20:17;101174.47;;;23.85;100.00
35806;BME280;21925;44.608;11.580;2023-06-10T04:22:46;101192.16;;;24.05;100.00
35806;BME280;21925;44.608;11.580;2023-06-10T04:25:13;101194.50;;;24.07;100.00
35806;BME280;21925;44.608;11.580;2023-06-10T04:27:40;101180.56;;;24.03;100.00
35806;BME280;21925;44.608;11.580;2023-06-10T04:30:10;101192.72;;;24.16;100.00
35806;BME280;21925;44.608;11.580;2023-06-10T04:32:40;101192.72;;;24.16;100.00
35806;BME280;21925;44.608;11.580;2023-06-10T04:35:12;101183.44;;;24.00;100.00
35806;BME280;21925;44.608;11.580;2023-06-10T04:37:39;101176.06;;;23.86;100.00
35806;BME280;21925;44.608;11.580;2023-06-10T04:40:06;101172.50;;;23.86;100.00
35806;BME280;21925;44.608;11.580;2023-06-10T04:42:36;101200.44;;;23.89;100.00
35806;BME280;21925;44.608;11.580;2023-06-10T04:45:05;101189.94;;;23.93;100.00
35806;BME280;21925;44.608;11.580;2023-06-10T04:47:31;101191.53;;;23.94;100.00
35806;BME280;21925;44.608;11.580;2023-06-10T04:50:01;101198.84;;;23.88;100.00
35806;BME280;21925;44.608;11.580;2023-06-10T04:52:29;101207.63;;;23.90;100.00
35806;BME280;21925;44.608;11.580;2023-06-10T04:54:54;101208.16;;;24.05;100.00
35806;BME280;21925;44.608;11.580;2023-06-10T04:57:20;101206.09;;;24.09;100.00
35806;BME280;21925;44.608;11.580;2023-06-10T04:59:47;101208.16;;;24.05;100.00
35806;BME280;21925;44.608;11.580;2023-06-10T05:02:13;101206.75;;;24.16;100.00
35806;BME280;21925;44.608;11.580;2023-06-10T05:04:39;101197.63;;;24.12;100.00
35806;BME280;21925;44.608;11.580;2023-06-10T05:07:05;101203.94;;;24.39;100.00
35806;BME280;21925;44.608;11.580;2023-06-10T05:09:31;101196.94;;;24.50;100.00
35806;BME280;21925;44.608;11.580;2023-06-10T05:11:58;101203.53;;;24.60;100.00
35806;BME280;21925;44.608;11.580;2023-06-10T05:14:24;101194.19;;;24.47;100.00
35806;BME280;21925;44.608;11.580;2023-06-10T05:16:50;101195.63;;;24.55;100.00
35806;BME280;21925;44.608;11.580;2023-06-10T05:19:16;101196.56;;;24.48;100.00
35806;BME280;21925;44.608;11.580;2023-06-10T05:21:41;101181.72;;;24.48;100.00
35806;BME280;21925;44.608;11.580;2023-06-10T05:24:07;101187.44;;;24.41;100.00
35806;BME280;21925;44.608;11.580;2023-06-10T05:26:33;101186.63;;;24.44;100.00
35806;BME280;21925;44.608;11.580;2023-06-10T05:29:03;101188.41;;;24.34;100.00
35806;BME280;21925;44.608;11.580;2023-06-10T05:31:29;101208.53;;;24.49;100.00
35806;BME280;21925;44.608;11.580;2023-06-10T05:33:57;101212.47;;;24.55;100.00
35806;BME280;21925;44.608;11.580;2023-06-10T05:36:23;101203.16;;;24.58;100.00
35806;BME280;21925;44.608;11.580;2023-06-10T05:38:54;101207.63;;;24.75;100.00
35806;BME280;21925;44.608;11.580;2023-06-10T05:41:20;101194.13;;;24.70;100.00
35806;BME280;21925;44.608;11.580;2023-06-10T05:43:47;101206.56;;;24.88;100.00
35806;BME280;21925;44.608;11.580;2023-06-10T05:46:13;101206.84;;;24.94;100.00
35806;BME280;21925;44.608;11.580;2023-06-10T05:48:39;101180.72;;;24.77;100.00
35806;BME280;21925;44.608;11.580;2023-06-10T05:51:05;101208.91;;;24.90;100.00
35806;BME280;21925;44.608;11.580;2023-06-10T05:53:32;101208.63;;;25.03;100.00
35806;BME280;21925;44.608;11.580;2023-06-10T05:56:01;101211.22;;;24.95;100.00
35806;BME280;21925;44.608;11.580;2023-06-10T05:58:29;101206.41;;;24.95;100.00
35806;BME280;21925;44.608;11.580;2023-06-10T06:00:58;101205.97;;;24.96;100.00
35806;BME280;21925;44.608;11.580;2023-06-10T06:03:24;101184.34;;;24.78;100.00
35806;BME280;21925;44.608;11.580;2023-06-10T06:05:49;101204.88;;;24.91;100.00
35806;BME280;21925;44.608;11.580;2023-06-10T06:08:15;101194.59;;;25.03;100.00
35806;BME280;21925;44.608;11.580;2023-06-10T06:10:46;101216.69;;;25.21;100.00
35806;BME280;21925;44.608;11.580;2023-06-10T06:13:13;101208.44;;;25.14;100.00
35806;BME280;21925;44.608;11.580;2023-06-10T06:15:39;101211.94;;;24.98;100.00
35806;BME280;21925;44.608;11.580;2023-06-10T06:18:05;101211.06;;;25.01;100.00
35806;BME280;21925;44.608;11.580;2023-06-10T06:20:30;101203.59;;;25.14;100.00
35806;BME280;21925;44.608;11.580;2023-06-10T06:22:56;101204.31;;;25.18;100.00
35806;BME280;21925;44.608;11.580;2023-06-10T06:25:22;101205.03;;;25.22;100.00
35806;BME280;21925;44.608;11.580;2023-06-10T06:27:48;101197.97;;;25.14;100.00
35806;BME280;21925;44.608;11.580;2023-06-10T06:30:14;101209.34;;;25.07;100.00
35806;BME280;21925;44.608;11.580;2023-06-10T06:32:42;101222.59;;;25.26;100.00
35806;BME280;21925;44.608;11.580;2023-06-10T06:35:12;101184.16;;;25.23;100.00
35806;BME280;21925;44.608;11.580;2023-06-10T06:37:37;101220.13;;;25.28;100.00
35806;BME280;21925;44.608;11.580;2023-06-10T06:40:17;101224.44;;;25.49;100.00
35806;BME280;21925;44.608;11.580;2023-06-10T06:42:44;101222.00;;;25.51;100.00
35806;BME280;21925;44.608;11.580;2023-06-10T06:45:36;101224.75;;;25.70;100.00
35806;BME280;21925;44.608;11.580;2023-06-10T06:48:04;101212.91;;;25.63;100.00
35806;BME280;21925;44.608;11.580;2023-06-10T06:50:31;101220.97;;;25.61;100.00
35806;BME280;21925;44.608;11.580;2023-06-10T06:52:56;101233.34;;;25.63;100.00
35806;BME280;21925;44.608;11.580;2023-06-10T06:55:22;101215.25;;;25.48;100.00
35806;BME280;21925;44.608;11.580;2023-06-10T06:57:48;101229.28;;;25.48;100.00
35806;BME280;21925;44.608;11.580;2023-06-10T07:00:15;101234.28;;;25.57;100.00
35806;BME280;21925;44.608;11.580;2023-06-10T07:02:45;101190.25;;;25.54;100.00
35806;BME280;21925;44.608;11.580;2023-06-10T07:05:14;101233.16;;;25.54;100.00
35806;BME280;21925;44.608;11.580;2023-06-10T07:07:40;101223.47;;;25.39;100.00
35806;BME280;21925;44.608;11.580;2023-06-10T07:10:11;101222.03;;;25.67;100.00
35806;BME280;21925;44.608;11.580;2023-06-10T07:12:37;101223.72;;;25.80;100.00
35806;BME280;21925;44.608;11.580;2023-06-10T07:15:03;101235.56;;;25.72;100.00
35806;BME280;21925;44.608;11.580;2023-06-10T07:17:29;101232.97;;;25.45;100.00
35806;BME280;21925;44.608;11.580;2023-06-10T07:19:55;101237.47;;;25.23;100.00
35806;BME280;21925;44.608;11.580;2023-06-10T07:22:23;101235.09;;;25.02;100.00
35806;BME280;21925;44.608;11.580;2023-06-10T07:24:51;101236.28;;;24.86;100.00
35806;BME280;21925;44.608;11.580;2023-06-10T07:27:18;101230.72;;;24.82;100.00
35806;BME280;21925;44.608;11.580;2023-06-10T07:29:43;101241.50;;;24.84;100.00
35806;BME280;21925;44.608;11.580;2023-06-10T07:32:10;101240.88;;;24.96;100.00
35806;BME280;21925;44.608;11.580;2023-06-10T07:34:39;101240.28;;;25.23;100.00
35806;BME280;21925;44.608;11.580;2023-06-10T07:37:05;101239.88;;;25.41;100.00
35806;BME280;21925;44.608;11.580;2023-06-10T07:39:31;101243.91;;;25.24;100.00
35806;BME280;21925;44.608;11.580;2023-06-10T07:41:56;101245.44;;;25.44;100.00
35806;BME280;21925;44.608;11.580;2023-06-10T07:44:23;101239.03;;;25.44;100.00
35806;BME280;21925;44.608;11.580;2023-06-10T07:46:49;101242.72;;;25.21;100.00
35806;BME280;21925;44.608;11.580;2023-06-10T07:49:15;101234.88;;;25.32;100.00
35806;BME280;21925;44.608;11.580;2023-06-10T07:51:41;101242.13;;;25.65;100.00
35806;BME280;21925;44.608;11.580;2023-06-10T07:54:06;101215.41;;;25.41;100.00
35806;BME280;21925;44.608;11.580;2023-06-10T07:56:32;101240.94;;;25.31;100.00
35806;BME280;21925;44.608;11.580;2023-06-10T07:58:58;101241.97;;;25.72;100.00
35806;BME280;21925;44.608;11.580;2023-06-10T08:01:24;101247.63;;;25.88;100.00
35806;BME280;21925;44.608;11.580;2023-06-10T08:03:50;101247.25;;;25.86;94.66
35806;BME280;21925;44.608;11.580;2023-06-10T08:06:15;101237.59;;;26.03;96.59
35806;BME280;21925;44.608;11.580;2023-06-10T08:08:43;101252.53;;;26.16;95.29
35806;BME280;21925;44.608;11.580;2023-06-10T08:11:12;101262.69;;;26.26;92.55
35806;BME280;21925;44.608;11.580;2023-06-10T08:13:38;101254.91;;;26.01;97.59
35806;BME280;21925;44.608;11.580;2023-06-10T08:16:04;101260.09;;;26.03;98.27
35806;BME280;21925;44.608;11.580;2023-06-10T08:18:29;101264.84;;;26.06;100.00
35806;BME280;21925;44.608;11.580;2023-06-10T08:20:55;101267.81;;;26.47;97.23
35806;BME280;21925;44.608;11.580;2023-06-10T08:23:21;101274.19;;;26.63;98.61
35806;BME280;21925;44.608;11.580;2023-06-10T08:25:47;101271.09;;;26.45;100.00
35806;BME280;21925;44.608;11.580;2023-06-10T08:28:13;101266.59;;;26.32;100.00
35806;BME280;21925;44.608;11.580;2023-06-10T08:30:38;101268.31;;;26.86;100.00
35806;BME280;21925;44.608;11.580;2023-06-10T08:33:04;101263.81;;;27.04;100.00
35806;BME280;21925;44.608;11.580;2023-06-10T08:35:30;101270.03;;;27.24;93.33
35806;BME280;21925;44.608;11.580;2023-06-10T08:37:56;101270.06;;;27.37;93.29
35806;BME280;21925;44.608;11.580;2023-06-10T08:40:25;101233.50;;;27.61;85.80
35806;BME280;21925;44.608;11.580;2023-06-10T08:43:19;101256.72;;;27.78;89.29
35806;BME280;21925;44.608;11.580;2023-06-10T08:45:48;101265.25;;;27.87;91.10
35806;BME280;21925;44.608;11.580;2023-06-10T08:48:19;101243.72;;;28.51;89.47
35806;BME280;21925;44.608;11.580;2023-06-10T08:50:51;101264.69;;;28.04;85.56
35806;BME280;21925;44.608;11.580;2023-06-10T08:53:22;101262.38;;;28.70;89.17
35806;BME280;21925;44.608;11.580;2023-06-10T08:55:57;101248.88;;;29.08;83.40
35806;BME280;21925;44.608;11.580;2023-06-10T08:58:24;101259.09;;;28.50;88.76
35806;BME280;21925;44.608;11.580;2023-06-10T09:00:51;101258.44;;;29.53;87.46
35806;BME280;21925;44.608;11.580;2023-06-10T09:03:17;101249.97;;;28.80;83.79
35806;BME280;21925;44.608;11.580;2023-06-10T09:05:44;101242.69;;;28.58;86.17
35806;BME280;21925;44.608;11.580;2023-06-10T09:08:10;101251.59;;;28.23;86.88
35806;BME280;21925;44.608;11.580;2023-06-10T09:10:36;101246.22;;;28.49;81.82
35806;BME280;21925;44.608;11.580;2023-06-10T09:13:02;101239.25;;;28.75;86.69
35806;BME280;21925;44.608;11.580;2023-06-10T09:15:28;101229.94;;;28.87;86.32
35806;BME280;21925;44.608;11.580;2023-06-10T09:17:54;101248.75;;;28.69;82.94
35806;BME280;21925;44.608;11.580;2023-06-10T09:20:20;101254.03;;;28.79;80.07
35806;BME280;21925;44.608;11.580;2023-06-10T09:22:49;101265.31;;;29.22;81.11
35806;BME280;21925;44.608;11.580;2023-06-10T09:25:15;101258.59;;;29.50;78.09
35806;BME280;21925;44.608;11.580;2023-06-10T09:27:48;101258.16;;;29.09;82.61
35806;BME280;21925;44.608;11.580;2023-06-10T09:30:26;101256.19;;;29.18;78.61
35806;BME280;21925;44.608;11.580;2023-06-10T09:32:53;101262.78;;;29.24;80.06
35806;BME280;21925;44.608;11.580;2023-06-10T09:35:23;101263.00;;;29.29;80.77
35806;BME280;21925;44.608;11.580;2023-06-10T09:37:54;101258.34;;;29.35;77.42
35806;BME280;21925;44.608;11.580;2023-06-10T09:40:20;101253.97;;;28.92;79.32
35806;BME280;21925;44.608;11.580;2023-06-10T09:42:46;101253.06;;;29.25;79.11
35806;BME280;21925;44.608;11.580;2023-06-10T09:45:19;101253.88;;;29.47;78.32
35806;BME280;21925;44.608;11.580;2023-06-10T09:47:46;101257.94;;;30.24;78.35
35806;BME280;21925;44.608;11.580;2023-06-10T09:50:12;101241.03;;;30.60;75.82
35806;BME280;21925;44.608;11.580;2023-06-10T09:52:38;101251.06;;;30.79;76.50
35806;BME280;21925;44.608;11.580;2023-06-10T09:55:07;101244.63;;;30.52;75.58
35806;BME280;21925;44.608;11.580;2023-06-10T09:57:34;101248.41;;;30.58;73.99
35806;BME280;21925;44.608;11.580;2023-06-10T10:00:05;101240.53;;;30.88;72.14
35806;BME280;21925;44.608;11.580;2023-06-10T10:02:57;101229.91;;;29.99;70.19
35806;BME280;21925;44.608;11.580;2023-06-10T10:05:22;101228.88;;;30.33;71.96
35806;BME280;21925;44.608;11.580;2023-06-10T10:07:48;101230.00;;;30.44;70.51
35806;BME280;21925;44.608;11.580;2023-06-10T10:10:18;101232.97;;;30.41;70.47
35806;BME280;21925;44.608;11.580;2023-06-10T10:12:50;101226.91;;;29.94;69.77
35806;BME280;21925;44.608;11.580;2023-06-10T10:15:27;101240.38;;;30.65;71.72
35806;BME280;21925;44.608;11.580;2023-06-10T10:18:08;101229.38;;;30.49;70.15
35806;BME280;21925;44.608;11.580;2023-06-10T10:20:46;101215.00;;;29.99;73.58
35806;BME280;21925;44.608;11.580;2023-06-10T10:23:14;101224.03;;;30.69;75.75
35806;BME280;21925;44.608;11.580;2023-06-10T10:25:43;101209.81;;;31.14;75.34
35806;BME280;21925;44.608;11.580;2023-06-10T10:28:11;101220.47;;;31.37;70.90
35806;BME280;21925;44.608;11.580;2023-06-10T10:30:45;101221.34;;;31.52;74.83
35806;BME280;21925;44.608;11.580;2023-06-10T10:34:04;101228.69;;;31.26;69.86
35806;BME280;21925;44.608;11.580;2023-06-10T10:36:23;101221.81;;;31.09;70.85
35806;BME280;21925;44.608;11.580;2023-06-10T10:38:49;101212.97;;;31.16;70.94
35806;BME280;21925;44.608;11.580;2023-06-10T10:41:15;101208.59;;;31.06;69.84
35806;BME280;21925;44.608;11.580;2023-06-10T10:43:46;101220.50;;;31.19;68.04
35806;BME280;21925;44.608;11.580;2023-06-10T10:46:14;101198.84;;;30.80;71.20
35806;BME280;21925;44.608;11.580;2023-06-10T10:48:44;101205.75;;;31.15;70.28
35806;BME280;21925;44.608;11.580;2023-06-10T10:51:10;101199.56;;;31.66;70.51
35806;BME280;21925;44.608;11.580;2023-06-10T10:53:39;101195.53;;;31.50;71.39
35806;BME280;21925;44.608;11.580;2023-06-10T10:56:16;101206.69;;;31.03;67.80
35806;BME280;21925;44.608;11.580;2023-06-10T10:59:04;101190.66;;;30.82;71.48
35806;BME280;21925;44.608;11.580;2023-06-10T11:01:43;101195.41;;;30.85;69.93
35806;BME280;21925;44.608;11.580;2023-06-10T11:04:21;101209.06;;;31.04;69.89
35806;BME280;21925;44.608;11.580;2023-06-10T11:06:53;101213.00;;;31.57;66.95
35806;BME280;21925;44.608;11.580;2023-06-10T11:09:27;101204.81;;;31.59;66.62
35806;BME280;21925;44.608;11.580;2023-06-10T11:11:56;101217.06;;;31.97;66.22
35806;BME280;21925;44.608;11.580;2023-06-10T11:14:29;101196.84;;;32.28;66.99
35806;BME280;21925;44.608;11.580;2023-06-10T11:16:59;101206.59;;;32.50;63.35
35806;BME280;21925;44.608;11.580;2023-06-10T11:19:35;101203.84;;;32.79;62.27
35806;BME280;21925;44.608;11.580;2023-06-10T11:22:02;101200.09;;;33.11;62.31
35806;BME280;21925;44.608;11.580;2023-06-10T11:24:29;101186.41;;;33.58;64.00
35806;BME280;21925;44.608;11.580;2023-06-10T11:27:14;101202.28;;;33.07;61.73
35806;BME280;21925;44.608;11.580;2023-06-10T11:32:33;101202.75;;;32.62;62.75
35806;BME280;21925;44.608;11.580;2023-06-10T11:35:03;101194.16;;;33.00;61.55
35806;BME280;21925;44.608;11.580;2023-06-10T11:37:29;101194.25;;;33.05;62.65
35806;BME280;21925;44.608;11.580;2023-06-10T11:39:55;101197.09;;;33.34;61.71
35806;BME280;21925;44.608;11.580;2023-06-10T11:42:22;101192.38;;;33.45;60.31
35806;BME280;21925;44.608;11.580;2023-06-10T11:44:49;101182.69;;;32.80;60.72
35806;BME280;21925;44.608;11.580;2023-06-10T11:47:15;101186.03;;;32.41;61.35
35806;BME280;21925;44.608;11.580;2023-06-10T11:49:41;101180.03;;;31.68;63.05
35806;BME280;21925;44.608;11.580;2023-06-10T11:52:07;101173.41;;;31.71;66.88
35806;BME280;21925;44.608;11.580;2023-06-10T11:54:33;101174.34;;;31.68;66.44
35806;BME280;21925;44.608;11.580;2023-06-10T11:56:59;101165.38;;;31.93;65.81
35806;BME280;21925;44.608;11.580;2023-06-10T11:59:29;101177.94;;;29.67;69.32
35806;BME280;21925;44.608;11.580;2023-06-10T12:01:56;101166.09;;;30.88;71.98
35806;BME280;21925;44.608;11.580;2023-06-10T12:04:22;101171.22;;;31.90;67.59
35806;BME280;21925;44.608;11.580;2023-06-10T12:06:49;101162.22;;;33.19;64.86
35806;BME280;21925;44.608;11.580;2023-06-10T12:11:50;101159.72;;;33.55;60.29
35806;BME280;21925;44.608;11.580;2023-06-10T12:14:16;101160.94;;;33.34;59.60
35806;BME280;21925;44.608;11.580;2023-06-10T12:17:02;101152.22;;;33.38;56.94
35806;BME280;21925;44.608;11.580;2023-06-10T12:19:28;101147.94;;;32.99;57.44
35806;BME280;21925;44.608;11.580;2023-06-10T12:21:53;101148.41;;;31.84;63.00
35806;BME280;21925;44.608;11.580;2023-06-10T12:24:19;101138.81;;;32.29;62.47
35806;BME280;21925;44.608;11.580;2023-06-10T12:26:45;101137.72;;;31.56;62.32
35806;BME280;21925;44.608;11.580;2023-06-10T12:29:24;101137.72;;;32.26;60.65
35806;BME280;21925;44.608;11.580;2023-06-10T12:32:03;101142.94;;;31.07;63.16
35806;BME280;21925;44.608;11.580;2023-06-10T12:34:37;101151.94;;;30.97;63.41
35806;BME280;21925;44.608;11.580;2023-06-10T12:37:05;101131.47;;;31.02;62.91
35806;BME280;21925;44.608;11.580;2023-06-10T12:39:33;101140.84;;;31.90;62.72
35806;BME280;21925;44.608;11.580;2023-06-10T12:41:59;101139.53;;;30.85;62.09
35806;BME280;21925;44.608;11.580;2023-06-10T12:44:29;101132.41;;;31.96;60.93
35806;BME280;21925;44.608;11.580;2023-06-10T12:46:56;101117.53;;;31.86;60.05
35806;BME280;21925;44.608;11.580;2023-06-10T12:49:21;101128.03;;;32.18;59.49
35806;BME280;21925;44.608;11.580;2023-06-10T12:51:47;101140.47;;;32.73;57.91